Venice, CA

18:54 PDT le 01 septembre 2014 (GMT -0700)
Abbot Kinney | Change Station
CLOSE
Current Station
Stations météorologiques personnelles
Location: Venice, CA
Altitude: 20 ft
Stations météo à proximité

Alt. 20 ft 33.99 °N, 118.47 °W | Updated 26 seconds ago

Clear
Ciel dégagé
73.1 ° F
Paraît 72 ° F
N
0.0
Vent Variable Vent de ONO
Gusts 0.0 mph

Aujourd'hui
Haut(e) -- | Bas -- ° F
--% Risque de précip.
Hier
Haut(e) -- | Bas -- ° F
Precip. -- pouce
6:27 AM 7:19 PM
Lune montante, 46% visible
Pression 29.77 pouce
Visibilité 10.0 Miles terrestres
Nuages Ciel dégagé
indice de chaleur 72 ° F
Point de rosée 68 ° F
Humidité 85%
Précipitations 0.00 pouce
Profondeur de la couche neigeuse Non disponible.
UV 0.0 sur 12
Pollen 7.80 sur 12
Ozone Bon
Flu Activity Non disponible.
METAR KSMO 020051Z 22006KT 10SM CLR 25/18 A2978 RMK AO2 SLP081 T02500178

More Conditions Fewer Conditions

Pression 29.77 pouce
Visibilité 10.0 Miles terrestres
Nuages Ciel dégagé
indice de chaleur 72 ° F
Point de rosée 68 ° F
Humidité 85%
Précipitations 0.00 pouce
Profondeur de la couche neigeuse Non disponible.
UV 0.0 sur 12
Pollen 7.80 sur 12
Ozone Bon
Flu Activity Non disponible.
METAR KSMO 020051Z 22006KT 10SM CLR 25/18 A2978 RMK AO2 SLP081 T02500178

More Conditions Fewer Conditions

10-Day Weather Forecast

Almanac

Astronomie

Sep. 01, 2014 Lever Coucher
Temps réel 06:27 PDT 19:19 PDT
Crépuscule civil 06:02 PDT 19:44 PDT
Crépuscule nautique 05:31 PDT 20:15 PDT
Crépuscule astronomique 05:00 PDT 20:45 PDT
Lune 12:59 PDT (9/1) 23:43 PDT (9/1)
Durée de lumière visible 13h 42m
Longueur du jour
12h 51m
Tomorrow will be 2m 2s shorter.
Lune montante, 46% of the Moon is Illuminated
Aujourd'hui
Lune montante
Sep 2
Premier quartier
Sep 8
Pleine lune
Sep 15
Dernier quartier
Sep 24
Nouveau

Extrêmes aujourd'hui

State Highs State Lows

Community

WunderPhotos

Upload Photos

1,749,476 Photos téléchargées !

Nearby

Qualité de l'air

  Qualité de l'air Indice de la qualité de l'air Polluant
Hier Bon
OZONE
Actuel Bon
OZONE
mardi Bon
OZONE
mardi Bon
PM10
mardi Bon
CO
mardi Bon
NO2

Épaisseur de neige

Station Depth Altitude
Adin Mountain 1 in 6200 ft

Activité sismique

Ville Distance Mag. Time & Date
Malibu, California 40 Miles terrestres 2.5 08:11 PDT
2014-08-30
Minimum magnitude displayed is 2.5.

Températures des eaux côtières

Lieu Température
Santa Monica Pier 71.1 ° F
Los Angeles, CA 71.1 ° F
La Jolla, CA 73.0 ° F

Stations météo à proximité